sensor_id;sensor_type;location;lat;lon;timestamp;P1;durP1;ratioP1;P2;durP2;ratioP2
44197;SDS011;30157;55.512;37.764;2022-12-05T00:02:20;17.88;;;5.78;;
44197;SDS011;30157;55.512;37.764;2022-12-05T00:04:46;11.98;;;5.82;;
44197;SDS011;30157;55.512;37.764;2022-12-05T00:07:12;14.45;;;6.15;;
44197;SDS011;30157;55.512;37.764;2022-12-05T00:09:37;14.02;;;5.65;;
44197;SDS011;30157;55.512;37.764;2022-12-05T00:12:03;14.93;;;6.13;;
44197;SDS011;30157;55.512;37.764;2022-12-05T00:14:29;14.70;;;5.85;;
44197;SDS011;30157;55.512;37.764;2022-12-05T00:16:55;13.40;;;6.03;;
44197;SDS011;30157;55.512;37.764;2022-12-05T00:19:20;14.18;;;5.55;;
44197;SDS011;30157;55.512;37.764;2022-12-05T00:21:49;16.67;;;6.13;;
44197;SDS011;30157;55.512;37.764;2022-12-05T00:24:15;16.85;;;5.60;;
44197;SDS011;30157;55.512;37.764;2022-12-05T00:26:41;10.82;;;5.82;;
44197;SDS011;30157;55.512;37.764;2022-12-05T00:29:07;15.07;;;6.45;;
44197;SDS011;30157;55.512;37.764;2022-12-05T00:31:33;14.02;;;5.60;;
44197;SDS011;30157;55.512;37.764;2022-12-05T00:33:59;12.70;;;5.50;;
44197;SDS011;30157;55.512;37.764;2022-12-05T00:36:27;14.23;;;5.88;;
44197;SDS011;30157;55.512;37.764;2022-12-05T00:38:54;16.23;;;5.95;;
44197;SDS011;30157;55.512;37.764;2022-12-05T00:41:23;14.07;;;6.43;;
44197;SDS011;30157;55.512;37.764;2022-12-05T00:43:51;13.98;;;6.25;;
44197;SDS011;30157;55.512;37.764;2022-12-05T00:46:18;13.93;;;5.47;;
44197;SDS011;30157;55.512;37.764;2022-12-05T00:48:46;12.75;;;5.38;;
44197;SDS011;30157;55.512;37.764;2022-12-05T00:51:19;12.57;;;5.75;;
44197;SDS011;30157;55.512;37.764;2022-12-05T00:53:47;10.80;;;5.03;;
44197;SDS011;30157;55.512;37.764;2022-12-05T00:56:17;11.70;;;5.22;;
44197;SDS011;30157;55.512;37.764;2022-12-05T00:58:44;12.75;;;5.95;;
44197;SDS011;30157;55.512;37.764;2022-12-05T01:01:12;12.95;;;5.60;;
44197;SDS011;30157;55.512;37.764;2022-12-05T01:03:39;14.50;;;6.43;;
44197;SDS011;30157;55.512;37.764;2022-12-05T01:06:06;12.73;;;5.47;;
44197;SDS011;30157;55.512;37.764;2022-12-05T01:08:33;15.35;;;5.30;;
44197;SDS011;30157;55.512;37.764;2022-12-05T01:10:59;10.90;;;5.38;;
44197;SDS011;30157;55.512;37.764;2022-12-05T01:13:26;15.82;;;6.10;;
44197;SDS011;30157;55.512;37.764;2022-12-05T01:15:52;15.48;;;6.07;;
44197;SDS011;30157;55.512;37.764;2022-12-05T01:18:19;12.75;;;5.82;;
44197;SDS011;30157;55.512;37.764;2022-12-05T01:20:45;11.55;;;5.38;;
44197;SDS011;30157;55.512;37.764;2022-12-05T01:23:12;14.02;;;5.38;;
44197;SDS011;30157;55.512;37.764;2022-12-05T01:25:42;10.57;;;4.82;;
44197;SDS011;30157;55.512;37.764;2022-12-05T01:28:09;12.25;;;6.20;;
44197;SDS011;30157;55.512;37.764;2022-12-05T01:30:39;11.10;;;5.20;;
44197;SDS011;30157;55.512;37.764;2022-12-05T01:33:06;15.50;;;5.63;;
44197;SDS011;30157;55.512;37.764;2022-12-05T01:35:32;13.18;;;5.82;;
44197;SDS011;30157;55.512;37.764;2022-12-05T01:37:59;17.20;;;6.03;;
44197;SDS011;30157;55.512;37.764;2022-12-05T01:40:25;14.98;;;5.95;;
44197;SDS011;30157;55.512;37.764;2022-12-05T01:42:51;12.98;;;5.45;;
44197;SDS011;30157;55.512;37.764;2022-12-05T01:45:20;14.18;;;5.57;;
44197;SDS011;30157;55.512;37.764;2022-12-05T01:47:53;11.93;;;6.25;;
44197;SDS011;30157;55.512;37.764;2022-12-05T01:50:18;14.32;;;6.00;;
44197;SDS011;30157;55.512;37.764;2022-12-05T01:52:44;13.40;;;6.15;;
44197;SDS011;30157;55.512;37.764;2022-12-05T01:55:11;13.98;;;5.72;;
44197;SDS011;30157;55.512;37.764;2022-12-05T01:57:39;14.50;;;6.50;;
44197;SDS011;30157;55.512;37.764;2022-12-05T02:00:10;12.63;;;5.57;;
44197;SDS011;30157;55.512;37.764;2022-12-05T02:02:40;11.82;;;5.10;;
44197;SDS011;30157;55.512;37.764;2022-12-05T02:05:14;17.90;;;4.53;;
44197;SDS011;30157;55.512;37.764;2022-12-05T02:07:44;15.75;;;5.85;;
44197;SDS011;30157;55.512;37.764;2022-12-05T02:10:11;12.55;;;5.38;;
44197;SDS011;30157;55.512;37.764;2022-12-05T02:12:38;14.63;;;5.55;;
44197;SDS011;30157;55.512;37.764;2022-12-05T02:15:09;14.27;;;6.20;;
44197;SDS011;30157;55.512;37.764;2022-12-05T02:17:44;10.90;;;4.57;;
44197;SDS011;30157;55.512;37.764;2022-12-05T02:29:09;10.23;;;4.68;;
44197;SDS011;30157;55.512;37.764;2022-12-05T02:37:08;11.90;;;6.05;;
44197;SDS011;30157;55.512;37.764;2022-12-05T02:40:02;12.38;;;5.32;;
44197;SDS011;30157;55.512;37.764;2022-12-05T02:42:37;11.52;;;4.80;;
44197;SDS011;30157;55.512;37.764;2022-12-05T02:45:18;12.52;;;5.30;;
44197;SDS011;30157;55.512;37.764;2022-12-05T02:47:49;14.05;;;5.03;;
44197;SDS011;30157;55.512;37.764;2022-12-05T02:50:24;11.43;;;4.78;;
44197;SDS011;30157;55.512;37.764;2022-12-05T02:52:57;14.73;;;5.97;;
44197;SDS011;30157;55.512;37.764;2022-12-05T02:55:26;17.30;;;5.43;;
44197;SDS011;30157;55.512;37.764;2022-12-05T02:57:55;15.70;;;6.22;;
44197;SDS011;30157;55.512;37.764;2022-12-05T03:00:25;11.25;;;5.00;;
44197;SDS011;30157;55.512;37.764;2022-12-05T03:02:52;9.93;;;3.75;;
44197;SDS011;30157;55.512;37.764;2022-12-05T03:05:26;10.32;;;4.03;;
44197;SDS011;30157;55.512;37.764;2022-12-05T03:08:24;13.20;;;4.80;;
44197;SDS011;30157;55.512;37.764;2022-12-05T03:10:55;11.70;;;5.28;;
44197;SDS011;30157;55.512;37.764;2022-12-05T03:13:30;12.60;;;5.20;;
44197;SDS011;30157;55.512;37.764;2022-12-05T03:16:07;11.93;;;4.90;;
44197;SDS011;30157;55.512;37.764;2022-12-05T03:18:39;13.82;;;5.72;;
44197;SDS011;30157;55.512;37.764;2022-12-05T03:23:55;13.35;;;6.88;;
44197;SDS011;30157;55.512;37.764;2022-12-05T03:29:18;13.82;;;5.70;;
44197;SDS011;30157;55.512;37.764;2022-12-05T03:37:12;11.75;;;5.78;;
44197;SDS011;30157;55.512;37.764;2022-12-05T03:39:46;15.48;;;5.47;;
44197;SDS011;30157;55.512;37.764;2022-12-05T03:42:19;13.70;;;6.20;;
44197;SDS011;30157;55.512;37.764;2022-12-05T03:47:26;15.88;;;6.38;;
44197;SDS011;30157;55.512;37.764;2022-12-05T03:49:57;10.15;;;4.68;;
44197;SDS011;30157;55.512;37.764;2022-12-05T03:52:45;13.43;;;5.22;;
44197;SDS011;30157;55.512;37.764;2022-12-05T03:55:16;15.80;;;5.82;;
44197;SDS011;30157;55.512;37.764;2022-12-05T03:57:44;12.45;;;5.25;;
44197;SDS011;30157;55.512;37.764;2022-12-05T04:00:16;12.68;;;5.45;;
44197;SDS011;30157;55.512;37.764;2022-12-05T04:05:24;14.32;;;5.72;;
44197;SDS011;30157;55.512;37.764;2022-12-05T04:08:40;15.15;;;5.38;;
44197;SDS011;30157;55.512;37.764;2022-12-05T04:10:49;10.38;;;5.10;;
44197;SDS011;30157;55.512;37.764;2022-12-05T04:13:22;12.40;;;5.72;;
44197;SDS011;30157;55.512;37.764;2022-12-05T04:18:56;15.65;;;6.30;;
44197;SDS011;30157;55.512;37.764;2022-12-05T04:21:27;15.10;;;5.47;;
44197;SDS011;30157;55.512;37.764;2022-12-05T04:24:07;13.82;;;6.63;;
44197;SDS011;30157;55.512;37.764;2022-12-05T04:27:05;14.95;;;4.63;;
44197;SDS011;30157;55.512;37.764;2022-12-05T04:29:42;21.42;;;7.32;;
44197;SDS011;30157;55.512;37.764;2022-12-05T04:32:19;15.75;;;5.70;;
44197;SDS011;30157;55.512;37.764;2022-12-05T04:34:51;14.75;;;5.60;;
44197;SDS011;30157;55.512;37.764;2022-12-05T04:37:21;13.63;;;5.72;;
44197;SDS011;30157;55.512;37.764;2022-12-05T04:39:54;14.88;;;6.25;;
44197;SDS011;30157;55.512;37.764;2022-12-05T04:42:26;8.38;;;3.75;;
44197;SDS011;30157;55.512;37.764;2022-12-05T04:44:57;12.52;;;5.28;;
44197;SDS011;30157;55.512;37.764;2022-12-05T04:47:30;14.55;;;6.93;;
44197;SDS011;30157;55.512;37.764;2022-12-05T04:50:02;13.13;;;4.85;;
44197;SDS011;30157;55.512;37.764;2022-12-05T04:52:28;13.07;;;4.93;;
44197;SDS011;30157;55.512;37.764;2022-12-05T04:57:43;13.82;;;5.10;;
44197;SDS011;30157;55.512;37.764;2022-12-05T05:00:17;15.88;;;6.88;;
44197;SDS011;30157;55.512;37.764;2022-12-05T05:02:50;15.85;;;5.63;;
44197;SDS011;30157;55.512;37.764;2022-12-05T05:05:21;11.73;;;5.65;;
44197;SDS011;30157;55.512;37.764;2022-12-05T05:07:49;12.90;;;5.88;;
44197;SDS011;30157;55.512;37.764;2022-12-05T05:10:18;12.90;;;5.28;;
44197;SDS011;30157;55.512;37.764;2022-12-05T05:12:55;15.85;;;7.15;;
44197;SDS011;30157;55.512;37.764;2022-12-05T05:15:20;12.75;;;4.78;;
44197;SDS011;30157;55.512;37.764;2022-12-05T05:17:46;16.33;;;5.65;;
44197;SDS011;30157;55.512;37.764;2022-12-05T05:20:12;12.27;;;5.50;;
44197;SDS011;30157;55.512;37.764;2022-12-05T05:22:52;12.52;;;5.65;;
44197;SDS011;30157;55.512;37.764;2022-12-05T05:25:21;13.70;;;5.05;;
44197;SDS011;30157;55.512;37.764;2022-12-05T05:27:48;12.50;;;5.25;;
44197;SDS011;30157;55.512;37.764;2022-12-05T05:30:16;11.13;;;4.93;;
44197;SDS011;30157;55.512;37.764;2022-12-05T05:32:43;13.07;;;5.63;;
44197;SDS011;30157;55.512;37.764;2022-12-05T05:35:09;12.98;;;5.75;;
44197;SDS011;30157;55.512;37.764;2022-12-05T05:37:36;11.07;;;4.93;;
44197;SDS011;30157;55.512;37.764;2022-12-05T05:40:10;15.65;;;5.43;;
44197;SDS011;30157;55.512;37.764;2022-12-05T05:42:43;16.17;;;6.53;;
44197;SDS011;30157;55.512;37.764;2022-12-05T05:45:18;12.52;;;5.95;;
44197;SDS011;30157;55.512;37.764;2022-12-05T05:47:44;14.43;;;6.28;;
44197;SDS011;30157;55.512;37.764;2022-12-05T05:50:11;13.10;;;5.70;;
44197;SDS011;30157;55.512;37.764;2022-12-05T05:52:37;18.10;;;7.00;;
44197;SDS011;30157;55.512;37.764;2022-12-05T05:55:06;15.20;;;5.90;;
44197;SDS011;30157;55.512;37.764;2022-12-05T05:57:33;12.18;;;4.47;;
44197;SDS011;30157;55.512;37.764;2022-12-05T05:59:59;14.20;;;5.80;;
44197;SDS011;30157;55.512;37.764;2022-12-05T06:02:30;16.58;;;6.55;;
44197;SDS011;30157;55.512;37.764;2022-12-05T06:04:56;15.27;;;6.32;;
44197;SDS011;30157;55.512;37.764;2022-12-05T06:07:22;21.00;;;8.32;;
44197;SDS011;30157;55.512;37.764;2022-12-05T06:09:48;17.90;;;8.15;;
44197;SDS011;30157;55.512;37.764;2022-12-05T06:12:13;12.52;;;6.07;;
44197;SDS011;30157;55.512;37.764;2022-12-05T06:14:39;16.75;;;7.70;;
44197;SDS011;30157;55.512;37.764;2022-12-05T06:17:05;16.50;;;7.90;;
44197;SDS011;30157;55.512;37.764;2022-12-05T06:19:30;22.55;;;9.43;;
44197;SDS011;30157;55.512;37.764;2022-12-05T06:21:56;26.73;;;9.80;;
44197;SDS011;30157;55.512;37.764;2022-12-05T06:24:22;18.23;;;7.68;;
44197;SDS011;30157;55.512;37.764;2022-12-05T06:26:47;22.02;;;8.88;;
44197;SDS011;30157;55.512;37.764;2022-12-05T06:29:13;19.30;;;8.50;;
44197;SDS011;30157;55.512;37.764;2022-12-05T06:31:40;18.55;;;7.95;;
44197;SDS011;30157;55.512;37.764;2022-12-05T06:34:05;17.63;;;7.82;;
44197;SDS011;30157;55.512;37.764;2022-12-05T06:36:31;17.98;;;8.00;;
44197;SDS011;30157;55.512;37.764;2022-12-05T06:38:57;14.52;;;7.07;;
44197;SDS011;30157;55.512;37.764;2022-12-05T06:41:24;17.83;;;7.40;;
44197;SDS011;30157;55.512;37.764;2022-12-05T06:43:52;18.48;;;7.75;;
44197;SDS011;30157;55.512;37.764;2022-12-05T06:46:22;13.95;;;6.90;;
44197;SDS011;30157;55.512;37.764;2022-12-05T06:48:51;19.30;;;7.28;;
44197;SDS011;30157;55.512;37.764;2022-12-05T06:51:21;16.33;;;7.65;;
44197;SDS011;30157;55.512;37.764;2022-12-05T06:53:48;15.85;;;7.50;;
44197;SDS011;30157;55.512;37.764;2022-12-05T06:56:15;15.07;;;6.55;;
44197;SDS011;30157;55.512;37.764;2022-12-05T06:58:43;12.52;;;7.05;;
44197;SDS011;30157;55.512;37.764;2022-12-05T07:01:13;14.45;;;7.28;;
44197;SDS011;30157;55.512;37.764;2022-12-05T07:04:00;14.80;;;6.63;;
44197;SDS011;30157;55.512;37.764;2022-12-05T07:06:26;15.43;;;6.95;;
44197;SDS011;30157;55.512;37.764;2022-12-05T07:08:52;13.70;;;7.30;;
44197;SDS011;30157;55.512;37.764;2022-12-05T07:11:18;13.48;;;7.30;;
44197;SDS011;30157;55.512;37.764;2022-12-05T07:13:44;14.90;;;7.22;;
44197;SDS011;30157;55.512;37.764;2022-12-05T07:16:10;13.98;;;7.07;;
44197;SDS011;30157;55.512;37.764;2022-12-05T07:18:36;14.05;;;7.22;;
44197;SDS011;30157;55.512;37.764;2022-12-05T07:21:06;15.15;;;7.30;;
44197;SDS011;30157;55.512;37.764;2022-12-05T07:23:34;14.18;;;6.93;;
44197;SDS011;30157;55.512;37.764;2022-12-05T07:26:03;12.30;;;6.43;;
44197;SDS011;30157;55.512;37.764;2022-12-05T07:28:33;13.07;;;6.55;;
44197;SDS011;30157;55.512;37.764;2022-12-05T07:31:00;11.95;;;6.90;;
44197;SDS011;30157;55.512;37.764;2022-12-05T07:33:33;14.15;;;6.75;;
44197;SDS011;30157;55.512;37.764;2022-12-05T07:36:00;13.25;;;7.00;;
44197;SDS011;30157;55.512;37.764;2022-12-05T07:38:27;14.10;;;7.43;;
44197;SDS011;30157;55.512;37.764;2022-12-05T07:40:53;11.65;;;5.70;;
44197;SDS011;30157;55.512;37.764;2022-12-05T07:43:28;11.27;;;5.72;;
44197;SDS011;30157;55.512;37.764;2022-12-05T07:45:54;10.32;;;5.63;;
44197;SDS011;30157;55.512;37.764;2022-12-05T07:48:20;13.43;;;5.80;;
44197;SDS011;30157;55.512;37.764;2022-12-05T07:50:46;11.00;;;6.07;;
44197;SDS011;30157;55.512;37.764;2022-12-05T07:53:12;13.00;;;5.80;;
44197;SDS011;30157;55.512;37.764;2022-12-05T07:55:37;9.90;;;5.88;;
44197;SDS011;30157;55.512;37.764;2022-12-05T07:58:03;10.48;;;5.30;;
44197;SDS011;30157;55.512;37.764;2022-12-05T08:00:29;11.57;;;5.57;;
44197;SDS011;30157;55.512;37.764;2022-12-05T08:02:55;8.60;;;5.22;;
44197;SDS011;30157;55.512;37.764;2022-12-05T08:05:21;10.75;;;5.38;;
44197;SDS011;30157;55.512;37.764;2022-12-05T08:07:47;9.30;;;5.50;;
44197;SDS011;30157;55.512;37.764;2022-12-05T08:10:12;13.35;;;5.60;;
44197;SDS011;30157;55.512;37.764;2022-12-05T08:12:38;12.13;;;5.22;;
44197;SDS011;30157;55.512;37.764;2022-12-05T08:15:04;10.77;;;5.18;;
44197;SDS011;30157;55.512;37.764;2022-12-05T08:17:31;12.20;;;6.07;;
44197;SDS011;30157;55.512;37.764;2022-12-05T08:19:59;10.68;;;4.85;;
44197;SDS011;30157;55.512;37.764;2022-12-05T08:22:28;13.13;;;5.88;;
44197;SDS011;30157;55.512;37.764;2022-12-05T08:24:54;10.88;;;5.05;;
44197;SDS011;30157;55.512;37.764;2022-12-05T08:27:19;10.75;;;5.05;;
44197;SDS011;30157;55.512;37.764;2022-12-05T08:29:45;13.07;;;5.13;;
44197;SDS011;30157;55.512;37.764;2022-12-05T08:32:11;14.18;;;6.43;;
44197;SDS011;30157;55.512;37.764;2022-12-05T08:34:36;14.18;;;5.80;;
44197;SDS011;30157;55.512;37.764;2022-12-05T08:37:02;11.45;;;5.35;;
44197;SDS011;30157;55.512;37.764;2022-12-05T08:39:28;10.35;;;4.78;;
44197;SDS011;30157;55.512;37.764;2022-12-05T08:41:54;10.60;;;5.38;;
44197;SDS011;30157;55.512;37.764;2022-12-05T08:44:19;9.20;;;4.68;;
44197;SDS011;30157;55.512;37.764;2022-12-05T08:46:46;11.50;;;4.97;;
44197;SDS011;30157;55.512;37.764;2022-12-05T08:49:13;10.98;;;4.95;;
44197;SDS011;30157;55.512;37.764;2022-12-05T08:51:39;12.10;;;5.95;;
44197;SDS011;30157;55.512;37.764;2022-12-05T08:54:06;10.52;;;5.30;;
44197;SDS011;30157;55.512;37.764;2022-12-05T08:56:32;11.43;;;5.40;;
44197;SDS011;30157;55.512;37.764;2022-12-05T08:58:58;10.73;;;4.93;;
44197;SDS011;30157;55.512;37.764;2022-12-05T09:01:26;12.90;;;5.38;;
44197;SDS011;30157;55.512;37.764;2022-12-05T09:03:59;13.45;;;5.65;;
44197;SDS011;30157;55.512;37.764;2022-12-05T09:06:26;13.48;;;6.30;;
44197;SDS011;30157;55.512;37.764;2022-12-05T09:08:54;12.68;;;5.15;;
44197;SDS011;30157;55.512;37.764;2022-12-05T09:11:23;10.45;;;5.22;;
44197;SDS011;30157;55.512;37.764;2022-12-05T09:13:52;13.27;;;5.80;;
44197;SDS011;30157;55.512;37.764;2022-12-05T09:16:21;12.35;;;6.05;;
44197;SDS011;30157;55.512;37.764;2022-12-05T09:18:49;11.00;;;4.85;;
44197;SDS011;30157;55.512;37.764;2022-12-05T09:21:33;11.38;;;4.90;;
44197;SDS011;30157;55.512;37.764;2022-12-05T09:23:59;11.35;;;5.00;;
44197;SDS011;30157;55.512;37.764;2022-12-05T09:26:25;11.40;;;5.15;;
44197;SDS011;30157;55.512;37.764;2022-12-05T09:28:52;10.70;;;5.28;;
44197;SDS011;30157;55.512;37.764;2022-12-05T09:31:19;10.38;;;5.15;;
44197;SDS011;30157;55.512;37.764;2022-12-05T09:33:47;10.88;;;5.30;;
44197;SDS011;30157;55.512;37.764;2022-12-05T09:36:16;9.65;;;5.40;;
44197;SDS011;30157;55.512;37.764;2022-12-05T09:38:43;11.27;;;5.25;;
44197;SDS011;30157;55.512;37.764;2022-12-05T09:44:37;9.88;;;4.93;;
44197;SDS011;30157;55.512;37.764;2022-12-05T09:49:49;11.10;;;4.47;;
44197;SDS011;30157;55.512;37.764;2022-12-05T09:52:23;13.07;;;5.90;;
44197;SDS011;30157;55.512;37.764;2022-12-05T09:54:56;10.70;;;4.68;;
44197;SDS011;30157;55.512;37.764;2022-12-05T09:57:39;8.80;;;4.70;;
44197;SDS011;30157;55.512;37.764;2022-12-05T10:00:10;10.82;;;4.38;;
44197;SDS011;30157;55.512;37.764;2022-12-05T10:05:26;14.20;;;5.50;;
44197;SDS011;30157;55.512;37.764;2022-12-05T10:08:06;10.73;;;5.47;;
44197;SDS011;30157;55.512;37.764;2022-12-05T10:15:53;8.07;;;4.90;;
44197;SDS011;30157;55.512;37.764;2022-12-05T10:18:34;10.15;;;4.18;;
44197;SDS011;30157;55.512;37.764;2022-12-05T10:24:11;11.40;;;5.60;;
44197;SDS011;30157;55.512;37.764;2022-12-05T10:26:47;11.35;;;5.47;;
44197;SDS011;30157;55.512;37.764;2022-12-05T10:31:46;11.65;;;5.03;;
44197;SDS011;30157;55.512;37.764;2022-12-05T10:34:15;14.10;;;5.38;;
44197;SDS011;30157;55.512;37.764;2022-12-05T10:36:53;12.52;;;5.40;;
44197;SDS011;30157;55.512;37.764;2022-12-05T10:39:25;10.75;;;5.07;;
44197;SDS011;30157;55.512;37.764;2022-12-05T10:41:51;12.32;;;5.13;;
44197;SDS011;30157;55.512;37.764;2022-12-05T10:44:18;12.80;;;4.88;;
44197;SDS011;30157;55.512;37.764;2022-12-05T10:46:44;12.57;;;5.70;;
44197;SDS011;30157;55.512;37.764;2022-12-05T10:49:10;8.73;;;4.43;;
44197;SDS011;30157;55.512;37.764;2022-12-05T10:51:37;13.57;;;5.50;;
44197;SDS011;30157;55.512;37.764;2022-12-05T10:54:10;14.10;;;6.20;;
44197;SDS011;30157;55.512;37.764;2022-12-05T10:59:10;12.98;;;4.55;;
44197;SDS011;30157;55.512;37.764;2022-12-05T11:01:42;14.90;;;6.25;;
44197;SDS011;30157;55.512;37.764;2022-12-05T11:04:40;12.73;;;5.85;;
44197;SDS011;30157;55.512;37.764;2022-12-05T11:07:09;12.85;;;5.53;;
44197;SDS011;30157;55.512;37.764;2022-12-05T11:09:53;9.57;;;4.30;;
44197;SDS011;30157;55.512;37.764;2022-12-05T11:17:46;11.60;;;5.57;;
44197;SDS011;30157;55.512;37.764;2022-12-05T11:22:42;12.88;;;5.97;;
44197;SDS011;30157;55.512;37.764;2022-12-05T11:27:57;12.02;;;4.85;;
44197;SDS011;30157;55.512;37.764;2022-12-05T11:30:25;9.98;;;5.05;;
44197;SDS011;30157;55.512;37.764;2022-12-05T11:35:48;13.55;;;5.35;;
44197;SDS011;30157;55.512;37.764;2022-12-05T11:38:18;13.07;;;5.50;;
44197;SDS011;30157;55.512;37.764;2022-12-05T11:52:00;9.93;;;5.22;;
44197;SDS011;30157;55.512;37.764;2022-12-05T11:54:59;11.43;;;4.88;;
44197;SDS011;30157;55.512;37.764;2022-12-05T11:57:44;12.73;;;5.57;;
44197;SDS011;30157;55.512;37.764;2022-12-05T12:00:30;16.02;;;5.70;;
44197;SDS011;30157;55.512;37.764;2022-12-05T12:03:17;13.23;;;5.60;;
44197;SDS011;30157;55.512;37.764;2022-12-05T12:06:00;9.18;;;4.90;;
44197;SDS011;30157;55.512;37.764;2022-12-05T12:08:59;12.48;;;6.40;;
44197;SDS011;30157;55.512;37.764;2022-12-05T12:11:32;13.43;;;5.13;;
44197;SDS011;30157;55.512;37.764;2022-12-05T12:14:49;12.50;;;4.88;;
44197;SDS011;30157;55.512;37.764;2022-12-05T12:20:18;9.80;;;5.47;;
44197;SDS011;30157;55.512;37.764;2022-12-05T12:36:32;13.88;;;5.88;;
44197;SDS011;30157;55.512;37.764;2022-12-05T12:41:53;11.70;;;6.05;;
44197;SDS011;30157;55.512;37.764;2022-12-05T12:47:14;14.93;;;6.68;;
44197;SDS011;30157;55.512;37.764;2022-12-05T12:53:06;16.75;;;5.85;;
44197;SDS011;30157;55.512;37.764;2022-12-05T12:55:49;12.98;;;6.03;;
44197;SDS011;30157;55.512;37.764;2022-12-05T12:58:36;13.52;;;6.10;;
44197;SDS011;30157;55.512;37.764;2022-12-05T13:01:10;12.40;;;6.05;;
44197;SDS011;30157;55.512;37.764;2022-12-05T13:08:56;13.40;;;4.40;;
44197;SDS011;30157;55.512;37.764;2022-12-05T13:11:28;11.15;;;4.80;;
44197;SDS011;30157;55.512;37.764;2022-12-05T13:13:59;14.55;;;5.32;;
44197;SDS011;30157;55.512;37.764;2022-12-05T13:16:30;11.73;;;5.10;;
44197;SDS011;30157;55.512;37.764;2022-12-05T13:18:59;12.07;;;5.03;;
44197;SDS011;30157;55.512;37.764;2022-12-05T13:21:27;14.27;;;4.78;;
44197;SDS011;30157;55.512;37.764;2022-12-05T13:23:54;14.20;;;5.60;;
44197;SDS011;30157;55.512;37.764;2022-12-05T13:26:28;13.55;;;5.40;;
44197;SDS011;30157;55.512;37.764;2022-12-05T13:28:56;12.05;;;4.55;;
44197;SDS011;30157;55.512;37.764;2022-12-05T13:34:04;8.88;;;3.90;;
44197;SDS011;30157;55.512;37.764;2022-12-05T13:36:37;11.48;;;4.28;;
44197;SDS011;30157;55.512;37.764;2022-12-05T13:39:23;11.02;;;4.32;;
44197;SDS011;30157;55.512;37.764;2022-12-05T13:42:24;10.55;;;3.58;;
44197;SDS011;30157;55.512;37.764;2022-12-05T13:44:54;7.15;;;3.25;;
44197;SDS011;30157;55.512;37.764;2022-12-05T13:50:15;13.70;;;5.18;;
44197;SDS011;30157;55.512;37.764;2022-12-05T13:52:48;7.88;;;4.35;;
44197;SDS011;30157;55.512;37.764;2022-12-05T13:55:38;12.13;;;5.00;;
44197;SDS011;30157;55.512;37.764;2022-12-05T14:01:28;12.10;;;5.25;;
44197;SDS011;30157;55.512;37.764;2022-12-05T14:09:47;11.38;;;5.20;;
44197;SDS011;30157;55.512;37.764;2022-12-05T14:17:28;10.10;;;5.15;;
44197;SDS011;30157;55.512;37.764;2022-12-05T14:29:00;19.92;;;6.13;;
44197;SDS011;30157;55.512;37.764;2022-12-05T14:35:09;12.35;;;5.22;;
44197;SDS011;30157;55.512;37.764;2022-12-05T14:37:40;12.77;;;5.65;;
44197;SDS011;30157;55.512;37.764;2022-12-05T14:40:28;11.32;;;5.82;;
44197;SDS011;30157;55.512;37.764;2022-12-05T14:43:01;11.25;;;5.30;;
44197;SDS011;30157;55.512;37.764;2022-12-05T14:55:40;13.20;;;6.13;;
44197;SDS011;30157;55.512;37.764;2022-12-05T14:58:11;13.75;;;7.30;;
44197;SDS011;30157;55.512;37.764;2022-12-05T15:00:45;12.00;;;6.38;;
44197;SDS011;30157;55.512;37.764;2022-12-05T15:03:21;19.00;;;6.68;;
44197;SDS011;30157;55.512;37.764;2022-12-05T15:05:51;13.73;;;6.03;;
44197;SDS011;30157;55.512;37.764;2022-12-05T15:08:17;15.75;;;6.72;;
44197;SDS011;30157;55.512;37.764;2022-12-05T15:10:45;16.88;;;6.63;;
44197;SDS011;30157;55.512;37.764;2022-12-05T15:13:18;12.05;;;5.95;;
44197;SDS011;30157;55.512;37.764;2022-12-05T15:16:03;11.43;;;5.15;;
44197;SDS011;30157;55.512;37.764;2022-12-05T15:18:34;12.95;;;5.45;;
44197;SDS011;30157;55.512;37.764;2022-12-05T15:21:24;12.98;;;5.15;;
44197;SDS011;30157;55.512;37.764;2022-12-05T15:24:13;12.50;;;4.97;;
44197;SDS011;30157;55.512;37.764;2022-12-05T15:39:52;12.32;;;4.97;;
44197;SDS011;30157;55.512;37.764;2022-12-05T15:42:25;12.80;;;5.78;;
44197;SDS011;30157;55.512;37.764;2022-12-05T15:44:59;14.40;;;6.18;;
44197;SDS011;30157;55.512;37.764;2022-12-05T16:09:03;9.70;;;4.82;;
44197;SDS011;30157;55.512;37.764;2022-12-05T16:11:31;9.60;;;4.68;;
44197;SDS011;30157;55.512;37.764;2022-12-05T16:13:57;13.35;;;5.22;;
44197;SDS011;30157;55.512;37.764;2022-12-05T16:16:27;18.20;;;4.82;;
44197;SDS011;30157;55.512;37.764;2022-12-05T16:19:03;12.48;;;4.68;;
44197;SDS011;30157;55.512;37.764;2022-12-05T16:21:38;8.82;;;4.28;;
44197;SDS011;30157;55.512;37.764;2022-12-05T16:24:17;15.40;;;4.55;;
44197;SDS011;30157;55.512;37.764;2022-12-05T16:26:59;10.07;;;4.57;;
44197;SDS011;30157;55.512;37.764;2022-12-05T16:29:31;11.43;;;4.85;;
44197;SDS011;30157;55.512;37.764;2022-12-05T16:31:59;14.23;;;5.25;;
44197;SDS011;30157;55.512;37.764;2022-12-05T16:34:28;10.15;;;4.53;;
44197;SDS011;30157;55.512;37.764;2022-12-05T16:36:56;14.07;;;5.35;;
44197;SDS011;30157;55.512;37.764;2022-12-05T16:39:23;10.23;;;4.30;;
44197;SDS011;30157;55.512;37.764;2022-12-05T16:41:52;11.18;;;5.18;;
44197;SDS011;30157;55.512;37.764;2022-12-05T16:47:21;10.15;;;4.15;;
44197;SDS011;30157;55.512;37.764;2022-12-05T16:49:51;8.88;;;4.43;;
44197;SDS011;30157;55.512;37.764;2022-12-05T16:52:16;11.98;;;4.88;;
44197;SDS011;30157;55.512;37.764;2022-12-05T16:54:44;10.77;;;4.40;;
44197;SDS011;30157;55.512;37.764;2022-12-05T16:57:13;8.82;;;4.13;;
44197;SDS011;30157;55.512;37.764;2022-12-05T16:59:40;8.57;;;4.07;;
44197;SDS011;30157;55.512;37.764;2022-12-05T17:02:12;12.25;;;5.00;;
44197;SDS011;30157;55.512;37.764;2022-12-05T17:04:39;9.50;;;4.55;;
44197;SDS011;30157;55.512;37.764;2022-12-05T17:07:05;10.35;;;4.88;;
44197;SDS011;30157;55.512;37.764;2022-12-05T17:09:31;12.90;;;5.03;;
44197;SDS011;30157;55.512;37.764;2022-12-05T17:12:07;12.50;;;4.68;;
44197;SDS011;30157;55.512;37.764;2022-12-05T17:14:39;13.55;;;5.15;;
44197;SDS011;30157;55.512;37.764;2022-12-05T17:17:09;10.13;;;4.80;;
44197;SDS011;30157;55.512;37.764;2022-12-05T17:19:37;13.23;;;5.32;;
44197;SDS011;30157;55.512;37.764;2022-12-05T17:22:03;11.70;;;5.32;;
44197;SDS011;30157;55.512;37.764;2022-12-05T17:24:30;8.80;;;4.22;;
44197;SDS011;30157;55.512;37.764;2022-12-05T17:26:56;9.98;;;4.88;;
44197;SDS011;30157;55.512;37.764;2022-12-05T17:29:22;10.50;;;4.45;;
44197;SDS011;30157;55.512;37.764;2022-12-05T17:31:48;14.02;;;5.30;;
44197;SDS011;30157;55.512;37.764;2022-12-05T17:34:15;9.15;;;4.75;;
44197;SDS011;30157;55.512;37.764;2022-12-05T17:36:42;9.35;;;4.22;;
44197;SDS011;30157;55.512;37.764;2022-12-05T17:39:09;10.55;;;4.50;;
44197;SDS011;30157;55.512;37.764;2022-12-05T17:41:34;10.48;;;4.75;;
44197;SDS011;30157;55.512;37.764;2022-12-05T17:44:01;11.48;;;4.90;;
44197;SDS011;30157;55.512;37.764;2022-12-05T17:46:28;15.18;;;5.53;;
44197;SDS011;30157;55.512;37.764;2022-12-05T17:48:54;10.50;;;4.55;;
44197;SDS011;30157;55.512;37.764;2022-12-05T17:51:19;8.98;;;4.20;;
44197;SDS011;30157;55.512;37.764;2022-12-05T17:53:47;14.00;;;4.60;;
44197;SDS011;30157;55.512;37.764;2022-12-05T17:56:13;10.88;;;5.32;;
44197;SDS011;30157;55.512;37.764;2022-12-05T17:58:40;12.02;;;6.30;;